sensor_id;sensor_type;location;lat;lon;timestamp;P1;durP1;ratioP1;P2;durP2;ratioP2
34234;SDS011;20500;49.856;20.290;2023-03-23T00:00:31;16.20;;;8.50;;
34234;SDS011;20500;49.856;20.290;2023-03-23T00:03:36;12.20;;;6.60;;
34234;SDS011;20500;49.856;20.290;2023-03-23T00:06:41;14.30;;;6.40;;
34234;SDS011;20500;49.856;20.290;2023-03-23T00:09:46;14.40;;;7.50;;
34234;SDS011;20500;49.856;20.290;2023-03-23T00:12:55;12.90;;;6.70;;
34234;SDS011;20500;49.856;20.290;2023-03-23T00:16:04;35.80;;;21.70;;
34234;SDS011;20500;49.856;20.290;2023-03-23T00:19:19;16.10;;;8.20;;
34234;SDS011;20500;49.856;20.290;2023-03-23T00:22:24;16.80;;;8.70;;
34234;SDS011;20500;49.856;20.290;2023-03-23T00:25:30;15.90;;;9.60;;
34234;SDS011;20500;49.856;20.290;2023-03-23T00:28:35;15.20;;;7.40;;
34234;SDS011;20500;49.856;20.290;2023-03-23T00:31:40;13.10;;;6.40;;
34234;SDS011;20500;49.856;20.290;2023-03-23T00:34:48;22.00;;;14.70;;
34234;SDS011;20500;49.856;20.290;2023-03-23T00:37:53;14.90;;;8.10;;
34234;SDS011;20500;49.856;20.290;2023-03-23T00:40:58;13.80;;;8.20;;
34234;SDS011;20500;49.856;20.290;2023-03-23T00:44:04;14.50;;;8.30;;
34234;SDS011;20500;49.856;20.290;2023-03-23T00:47:10;13.60;;;7.00;;
34234;SDS011;20500;49.856;20.290;2023-03-23T00:50:18;12.90;;;7.30;;
34234;SDS011;20500;49.856;20.290;2023-03-23T00:53:23;12.80;;;6.90;;
34234;SDS011;20500;49.856;20.290;2023-03-23T00:56:28;14.70;;;8.20;;
34234;SDS011;20500;49.856;20.290;2023-03-23T00:59:33;14.60;;;7.20;;
34234;SDS011;20500;49.856;20.290;2023-03-23T01:02:38;12.80;;;7.00;;
34234;SDS011;20500;49.856;20.290;2023-03-23T01:05:46;13.70;;;7.50;;
34234;SDS011;20500;49.856;20.290;2023-03-23T01:08:53;14.60;;;7.50;;
34234;SDS011;20500;49.856;20.290;2023-03-23T01:11:58;13.10;;;7.10;;
34234;SDS011;20500;49.856;20.290;2023-03-23T01:15:04;16.00;;;7.30;;
34234;SDS011;20500;49.856;20.290;2023-03-23T01:18:10;18.40;;;7.90;;
34234;SDS011;20500;49.856;20.290;2023-03-23T01:21:18;13.70;;;7.60;;
34234;SDS011;20500;49.856;20.290;2023-03-23T01:24:23;14.40;;;7.50;;
34234;SDS011;20500;49.856;20.290;2023-03-23T01:27:28;15.20;;;8.70;;
34234;SDS011;20500;49.856;20.290;2023-03-23T01:30:33;14.10;;;6.80;;
34234;SDS011;20500;49.856;20.290;2023-03-23T01:33:38;14.40;;;8.00;;
34234;SDS011;20500;49.856;20.290;2023-03-23T01:36:44;13.30;;;6.70;;
34234;SDS011;20500;49.856;20.290;2023-03-23T01:39:49;14.50;;;8.30;;
34234;SDS011;20500;49.856;20.290;2023-03-23T01:42:54;13.80;;;6.90;;
34234;SDS011;20500;49.856;20.290;2023-03-23T01:45:59;12.80;;;6.50;;
34234;SDS011;20500;49.856;20.290;2023-03-23T01:49:06;15.00;;;7.70;;
34234;SDS011;20500;49.856;20.290;2023-03-23T01:52:15;13.80;;;7.60;;
34234;SDS011;20500;49.856;20.290;2023-03-23T01:55:23;13.30;;;6.90;;
34234;SDS011;20500;49.856;20.290;2023-03-23T01:58:31;12.30;;;6.60;;
34234;SDS011;20500;49.856;20.290;2023-03-23T02:01:37;12.20;;;6.70;;
34234;SDS011;20500;49.856;20.290;2023-03-23T02:04:46;12.70;;;7.00;;
34234;SDS011;20500;49.856;20.290;2023-03-23T02:07:53;13.80;;;7.50;;
34234;SDS011;20500;49.856;20.290;2023-03-23T02:11:11;15.70;;;8.10;;
34234;SDS011;20500;49.856;20.290;2023-03-23T02:14:17;12.50;;;6.70;;
34234;SDS011;20500;49.856;20.290;2023-03-23T02:17:23;13.80;;;7.00;;
34234;SDS011;20500;49.856;20.290;2023-03-23T02:28:02;12.60;;;7.20;;
34234;SDS011;20500;49.856;20.290;2023-03-23T02:35:05;13.70;;;7.60;;
34234;SDS011;20500;49.856;20.290;2023-03-23T02:38:14;14.60;;;7.50;;
34234;SDS011;20500;49.856;20.290;2023-03-23T02:41:24;15.40;;;6.90;;
34234;SDS011;20500;49.856;20.290;2023-03-23T02:44:34;12.60;;;6.80;;
34234;SDS011;20500;49.856;20.290;2023-03-23T02:47:41;15.30;;;6.90;;
34234;SDS011;20500;49.856;20.290;2023-03-23T02:50:49;12.40;;;7.20;;
34234;SDS011;20500;49.856;20.290;2023-03-23T02:53:55;12.80;;;6.50;;
34234;SDS011;20500;49.856;20.290;2023-03-23T03:00:06;12.00;;;6.00;;
34234;SDS011;20500;49.856;20.290;2023-03-23T03:03:16;12.10;;;6.20;;
34234;SDS011;20500;49.856;20.290;2023-03-23T03:06:25;11.60;;;6.60;;
34234;SDS011;20500;49.856;20.290;2023-03-23T03:09:39;12.40;;;6.50;;
34234;SDS011;20500;49.856;20.290;2023-03-23T03:12:53;12.80;;;6.30;;
34234;SDS011;20500;49.856;20.290;2023-03-23T03:16:05;13.40;;;6.90;;
34234;SDS011;20500;49.856;20.290;2023-03-23T03:19:19;13.20;;;7.70;;
34234;SDS011;20500;49.856;20.290;2023-03-23T03:22:27;14.40;;;6.70;;
34234;SDS011;20500;49.856;20.290;2023-03-23T03:25:33;16.00;;;7.10;;
34234;SDS011;20500;49.856;20.290;2023-03-23T03:28:40;13.00;;;6.70;;
34234;SDS011;20500;49.856;20.290;2023-03-23T03:31:45;12.20;;;6.70;;
34234;SDS011;20500;49.856;20.290;2023-03-23T03:34:53;12.40;;;6.60;;
34234;SDS011;20500;49.856;20.290;2023-03-23T03:37:58;12.00;;;6.80;;
34234;SDS011;20500;49.856;20.290;2023-03-23T03:41:10;17.20;;;7.40;;
34234;SDS011;20500;49.856;20.290;2023-03-23T03:44:15;12.40;;;6.60;;
34234;SDS011;20500;49.856;20.290;2023-03-23T03:47:20;12.60;;;6.60;;
34234;SDS011;20500;49.856;20.290;2023-03-23T03:50:25;11.60;;;5.70;;
34234;SDS011;20500;49.856;20.290;2023-03-23T03:53:30;11.10;;;5.90;;
34234;SDS011;20500;49.856;20.290;2023-03-23T03:56:35;13.50;;;6.80;;
34234;SDS011;20500;49.856;20.290;2023-03-23T03:59:42;12.00;;;6.20;;
34234;SDS011;20500;49.856;20.290;2023-03-23T04:02:47;13.30;;;6.20;;
34234;SDS011;20500;49.856;20.290;2023-03-23T04:05:56;11.50;;;5.70;;
34234;SDS011;20500;49.856;20.290;2023-03-23T04:09:02;11.70;;;6.20;;
34234;SDS011;20500;49.856;20.290;2023-03-23T04:12:09;13.20;;;6.40;;
34234;SDS011;20500;49.856;20.290;2023-03-23T04:15:14;12.50;;;5.60;;
34234;SDS011;20500;49.856;20.290;2023-03-23T04:18:19;13.10;;;5.40;;
34234;SDS011;20500;49.856;20.290;2023-03-23T04:21:25;11.80;;;5.40;;
34234;SDS011;20500;49.856;20.290;2023-03-23T04:24:31;10.70;;;5.40;;
34234;SDS011;20500;49.856;20.290;2023-03-23T04:27:37;10.60;;;5.00;;
34234;SDS011;20500;49.856;20.290;2023-03-23T04:30:46;11.80;;;5.70;;
34234;SDS011;20500;49.856;20.290;2023-03-23T04:33:54;12.10;;;5.00;;
34234;SDS011;20500;49.856;20.290;2023-03-23T04:37:01;10.50;;;4.60;;
34234;SDS011;20500;49.856;20.290;2023-03-23T04:40:07;11.50;;;5.10;;
34234;SDS011;20500;49.856;20.290;2023-03-23T04:43:16;10.50;;;4.60;;
34234;SDS011;20500;49.856;20.290;2023-03-23T04:46:25;11.90;;;5.00;;
34234;SDS011;20500;49.856;20.290;2023-03-23T04:49:31;10.30;;;4.50;;
34234;SDS011;20500;49.856;20.290;2023-03-23T04:52:37;10.60;;;4.70;;
34234;SDS011;20500;49.856;20.290;2023-03-23T04:55:46;10.90;;;4.90;;
34234;SDS011;20500;49.856;20.290;2023-03-23T04:58:52;12.00;;;4.50;;
34234;SDS011;20500;49.856;20.290;2023-03-23T05:01:57;9.70;;;4.50;;
34234;SDS011;20500;49.856;20.290;2023-03-23T05:05:02;11.40;;;4.60;;
34234;SDS011;20500;49.856;20.290;2023-03-23T05:08:08;10.00;;;4.60;;
34234;SDS011;20500;49.856;20.290;2023-03-23T05:11:12;10.30;;;4.40;;
34234;SDS011;20500;49.856;20.290;2023-03-23T05:14:17;11.30;;;5.40;;
34234;SDS011;20500;49.856;20.290;2023-03-23T05:17:22;11.80;;;4.90;;
34234;SDS011;20500;49.856;20.290;2023-03-23T05:20:27;10.90;;;4.90;;
34234;SDS011;20500;49.856;20.290;2023-03-23T05:23:32;11.00;;;5.20;;
34234;SDS011;20500;49.856;20.290;2023-03-23T05:26:37;12.20;;;5.10;;
34234;SDS011;20500;49.856;20.290;2023-03-23T05:29:42;12.70;;;5.80;;
34234;SDS011;20500;49.856;20.290;2023-03-23T05:32:50;10.70;;;4.70;;
34234;SDS011;20500;49.856;20.290;2023-03-23T05:35:55;10.90;;;5.10;;
34234;SDS011;20500;49.856;20.290;2023-03-23T05:39:00;12.10;;;4.70;;
34234;SDS011;20500;49.856;20.290;2023-03-23T05:42:05;10.10;;;4.50;;
34234;SDS011;20500;49.856;20.290;2023-03-23T05:45:11;12.10;;;5.30;;
34234;SDS011;20500;49.856;20.290;2023-03-23T05:48:16;11.10;;;5.30;;
34234;SDS011;20500;49.856;20.290;2023-03-23T05:51:21;10.90;;;4.80;;
34234;SDS011;20500;49.856;20.290;2023-03-23T05:54:26;10.10;;;4.40;;
34234;SDS011;20500;49.856;20.290;2023-03-23T05:57:31;11.00;;;4.80;;
34234;SDS011;20500;49.856;20.290;2023-03-23T06:00:37;14.00;;;5.00;;
34234;SDS011;20500;49.856;20.290;2023-03-23T06:03:42;10.50;;;4.70;;
34234;SDS011;20500;49.856;20.290;2023-03-23T06:06:47;11.20;;;5.30;;
34234;SDS011;20500;49.856;20.290;2023-03-23T06:09:53;9.50;;;4.20;;
34234;SDS011;20500;49.856;20.290;2023-03-23T06:12:58;10.80;;;5.00;;
34234;SDS011;20500;49.856;20.290;2023-03-23T06:16:03;10.20;;;4.60;;
34234;SDS011;20500;49.856;20.290;2023-03-23T06:19:10;11.50;;;5.10;;
34234;SDS011;20500;49.856;20.290;2023-03-23T06:25:19;10.20;;;4.40;;
34234;SDS011;20500;49.856;20.290;2023-03-23T06:28:25;10.90;;;4.60;;
34234;SDS011;20500;49.856;20.290;2023-03-23T06:31:30;9.50;;;4.40;;
34234;SDS011;20500;49.856;20.290;2023-03-23T06:34:38;9.50;;;4.10;;
34234;SDS011;20500;49.856;20.290;2023-03-23T06:37:45;9.70;;;4.00;;
34234;SDS011;20500;49.856;20.290;2023-03-23T06:40:52;11.40;;;4.90;;
34234;SDS011;20500;49.856;20.290;2023-03-23T06:43:58;10.90;;;4.50;;
34234;SDS011;20500;49.856;20.290;2023-03-23T06:47:03;11.40;;;5.50;;
34234;SDS011;20500;49.856;20.290;2023-03-23T06:50:10;10.90;;;5.10;;
34234;SDS011;20500;49.856;20.290;2023-03-23T06:53:15;11.70;;;5.00;;
34234;SDS011;20500;49.856;20.290;2023-03-23T06:59:25;10.90;;;4.90;;
34234;SDS011;20500;49.856;20.290;2023-03-23T07:02:30;11.20;;;5.50;;
34234;SDS011;20500;49.856;20.290;2023-03-23T07:05:36;10.30;;;4.70;;
34234;SDS011;20500;49.856;20.290;2023-03-23T07:08:41;10.80;;;4.70;;
34234;SDS011;20500;49.856;20.290;2023-03-23T07:11:46;10.10;;;5.00;;
34234;SDS011;20500;49.856;20.290;2023-03-23T07:14:53;12.20;;;5.20;;
34234;SDS011;20500;49.856;20.290;2023-03-23T07:17:58;9.30;;;4.00;;
34234;SDS011;20500;49.856;20.290;2023-03-23T07:21:03;9.60;;;4.50;;
34234;SDS011;20500;49.856;20.290;2023-03-23T07:24:11;10.60;;;4.60;;
34234;SDS011;20500;49.856;20.290;2023-03-23T07:27:16;10.50;;;4.50;;
34234;SDS011;20500;49.856;20.290;2023-03-23T07:30:22;9.50;;;4.20;;
34234;SDS011;20500;49.856;20.290;2023-03-23T07:33:28;9.90;;;3.80;;
34234;SDS011;20500;49.856;20.290;2023-03-23T07:36:33;9.90;;;4.10;;
34234;SDS011;20500;49.856;20.290;2023-03-23T07:39:39;10.50;;;4.40;;
34234;SDS011;20500;49.856;20.290;2023-03-23T07:42:45;8.80;;;3.70;;
34234;SDS011;20500;49.856;20.290;2023-03-23T07:45:57;11.10;;;5.00;;
34234;SDS011;20500;49.856;20.290;2023-03-23T07:49:02;9.20;;;4.00;;
34234;SDS011;20500;49.856;20.290;2023-03-23T07:52:07;11.10;;;4.60;;
34234;SDS011;20500;49.856;20.290;2023-03-23T07:55:13;10.50;;;4.70;;
34234;SDS011;20500;49.856;20.290;2023-03-23T07:58:20;8.90;;;3.90;;
34234;SDS011;20500;49.856;20.290;2023-03-23T08:01:25;11.60;;;4.40;;
34234;SDS011;20500;49.856;20.290;2023-03-23T08:04:30;8.70;;;3.90;;
34234;SDS011;20500;49.856;20.290;2023-03-23T08:07:38;10.30;;;3.80;;
34234;SDS011;20500;49.856;20.290;2023-03-23T08:10:44;10.00;;;4.20;;
34234;SDS011;20500;49.856;20.290;2023-03-23T08:13:49;8.70;;;3.50;;
34234;SDS011;20500;49.856;20.290;2023-03-23T08:16:54;9.70;;;4.20;;
34234;SDS011;20500;49.856;20.290;2023-03-23T08:20:00;9.60;;;4.00;;
34234;SDS011;20500;49.856;20.290;2023-03-23T08:23:11;8.90;;;3.70;;
34234;SDS011;20500;49.856;20.290;2023-03-23T08:26:16;9.20;;;4.10;;
34234;SDS011;20500;49.856;20.290;2023-03-23T08:29:21;9.00;;;3.70;;
34234;SDS011;20500;49.856;20.290;2023-03-23T08:32:26;8.60;;;4.10;;
34234;SDS011;20500;49.856;20.290;2023-03-23T08:35:31;8.80;;;3.70;;
34234;SDS011;20500;49.856;20.290;2023-03-23T08:38:37;8.50;;;3.80;;
34234;SDS011;20500;49.856;20.290;2023-03-23T08:41:42;9.60;;;3.70;;
34234;SDS011;20500;49.856;20.290;2023-03-23T08:44:47;9.60;;;3.90;;
34234;SDS011;20500;49.856;20.290;2023-03-23T08:47:52;8.70;;;3.50;;
34234;SDS011;20500;49.856;20.290;2023-03-23T08:50:57;8.90;;;3.70;;
34234;SDS011;20500;49.856;20.290;2023-03-23T08:54:02;10.30;;;3.90;;
34234;SDS011;20500;49.856;20.290;2023-03-23T08:57:09;10.20;;;3.50;;
34234;SDS011;20500;49.856;20.290;2023-03-23T09:00:15;9.20;;;3.70;;
34234;SDS011;20500;49.856;20.290;2023-03-23T09:03:21;8.30;;;3.60;;
34234;SDS011;20500;49.856;20.290;2023-03-23T09:06:26;8.20;;;3.50;;
34234;SDS011;20500;49.856;20.290;2023-03-23T09:09:31;10.40;;;4.40;;
34234;SDS011;20500;49.856;20.290;2023-03-23T09:12:37;9.40;;;4.00;;
34234;SDS011;20500;49.856;20.290;2023-03-23T09:15:42;9.10;;;3.70;;
34234;SDS011;20500;49.856;20.290;2023-03-23T09:18:47;11.60;;;5.50;;
34234;SDS011;20500;49.856;20.290;2023-03-23T09:21:53;11.60;;;4.10;;
34234;SDS011;20500;49.856;20.290;2023-03-23T09:24:58;11.20;;;5.10;;
34234;SDS011;20500;49.856;20.290;2023-03-23T09:28:03;12.00;;;5.40;;
34234;SDS011;20500;49.856;20.290;2023-03-23T09:31:08;9.00;;;3.80;;
34234;SDS011;20500;49.856;20.290;2023-03-23T09:34:13;9.40;;;4.40;;
34234;SDS011;20500;49.856;20.290;2023-03-23T09:37:19;9.50;;;3.80;;
34234;SDS011;20500;49.856;20.290;2023-03-23T09:40:24;8.70;;;3.40;;
34234;SDS011;20500;49.856;20.290;2023-03-23T09:43:36;10.90;;;3.50;;
34234;SDS011;20500;49.856;20.290;2023-03-23T09:46:53;7.30;;;2.80;;
34234;SDS011;20500;49.856;20.290;2023-03-23T09:50:06;7.90;;;2.80;;
34234;SDS011;20500;49.856;20.290;2023-03-23T09:53:16;7.80;;;3.30;;
34234;SDS011;20500;49.856;20.290;2023-03-23T09:56:24;8.30;;;3.30;;
34234;SDS011;20500;49.856;20.290;2023-03-23T09:59:36;9.90;;;3.30;;
34234;SDS011;20500;49.856;20.290;2023-03-23T10:02:46;6.40;;;2.80;;
34234;SDS011;20500;49.856;20.290;2023-03-23T10:05:58;8.70;;;3.40;;
34234;SDS011;20500;49.856;20.290;2023-03-23T10:09:04;8.20;;;3.20;;
34234;SDS011;20500;49.856;20.290;2023-03-23T10:12:19;8.90;;;3.60;;
34234;SDS011;20500;49.856;20.290;2023-03-23T10:15:31;8.30;;;3.40;;
34234;SDS011;20500;49.856;20.290;2023-03-23T10:18:40;8.60;;;3.70;;
34234;SDS011;20500;49.856;20.290;2023-03-23T10:21:51;9.80;;;3.80;;
34234;SDS011;20500;49.856;20.290;2023-03-23T10:25:02;7.80;;;3.20;;
34234;SDS011;20500;49.856;20.290;2023-03-23T10:28:17;7.60;;;3.30;;
34234;SDS011;20500;49.856;20.290;2023-03-23T10:31:27;7.80;;;2.80;;
34234;SDS011;20500;49.856;20.290;2023-03-23T10:34:35;9.80;;;3.30;;
34234;SDS011;20500;49.856;20.290;2023-03-23T10:37:48;7.70;;;2.80;;
34234;SDS011;20500;49.856;20.290;2023-03-23T10:40:59;7.60;;;2.80;;
34234;SDS011;20500;49.856;20.290;2023-03-23T10:44:15;8.60;;;3.30;;
34234;SDS011;20500;49.856;20.290;2023-03-23T10:47:24;8.00;;;3.10;;
34234;SDS011;20500;49.856;20.290;2023-03-23T10:50:31;8.00;;;2.90;;
34234;SDS011;20500;49.856;20.290;2023-03-23T10:53:38;6.80;;;2.40;;
34234;SDS011;20500;49.856;20.290;2023-03-23T10:56:47;7.10;;;2.80;;
34234;SDS011;20500;49.856;20.290;2023-03-23T10:59:57;7.60;;;2.60;;
34234;SDS011;20500;49.856;20.290;2023-03-23T11:03:20;8.70;;;2.90;;
34234;SDS011;20500;49.856;20.290;2023-03-23T11:06:30;10.00;;;3.10;;
34234;SDS011;20500;49.856;20.290;2023-03-23T11:09:40;8.50;;;3.20;;
34234;SDS011;20500;49.856;20.290;2023-03-23T11:12:58;10.10;;;3.30;;
34234;SDS011;20500;49.856;20.290;2023-03-23T11:16:03;7.20;;;2.80;;
34234;SDS011;20500;49.856;20.290;2023-03-23T11:19:14;8.20;;;3.20;;
34234;SDS011;20500;49.856;20.290;2023-03-23T11:22:26;8.80;;;2.90;;
34234;SDS011;20500;49.856;20.290;2023-03-23T11:25:32;7.70;;;2.90;;
34234;SDS011;20500;49.856;20.290;2023-03-23T11:28:52;8.60;;;3.00;;
34234;SDS011;20500;49.856;20.290;2023-03-23T11:32:03;7.20;;;2.60;;
34234;SDS011;20500;49.856;20.290;2023-03-23T11:35:16;6.90;;;2.50;;
34234;SDS011;20500;49.856;20.290;2023-03-23T11:38:23;7.00;;;2.50;;
34234;SDS011;20500;49.856;20.290;2023-03-23T11:41:32;6.40;;;2.20;;
34234;SDS011;20500;49.856;20.290;2023-03-23T11:44:41;7.60;;;2.70;;
34234;SDS011;20500;49.856;20.290;2023-03-23T11:47:53;6.30;;;2.40;;
34234;SDS011;20500;49.856;20.290;2023-03-23T11:51:05;6.60;;;2.30;;
34234;SDS011;20500;49.856;20.290;2023-03-23T11:54:15;6.10;;;2.50;;
34234;SDS011;20500;49.856;20.290;2023-03-23T11:57:23;6.30;;;2.30;;
34234;SDS011;20500;49.856;20.290;2023-03-23T12:00:30;7.30;;;2.60;;
34234;SDS011;20500;49.856;20.290;2023-03-23T12:03:47;6.30;;;2.40;;
34234;SDS011;20500;49.856;20.290;2023-03-23T12:07:01;5.80;;;2.30;;
34234;SDS011;20500;49.856;20.290;2023-03-23T12:10:18;6.10;;;2.40;;
34234;SDS011;20500;49.856;20.290;2023-03-23T12:13:33;9.10;;;2.70;;
34234;SDS011;20500;49.856;20.290;2023-03-23T12:17:00;6.70;;;2.80;;
34234;SDS011;20500;49.856;20.290;2023-03-23T12:20:19;6.80;;;2.70;;
34234;SDS011;20500;49.856;20.290;2023-03-23T12:23:31;7.20;;;2.80;;
34234;SDS011;20500;49.856;20.290;2023-03-23T12:26:44;7.80;;;2.40;;
34234;SDS011;20500;49.856;20.290;2023-03-23T12:29:58;7.60;;;2.90;;
34234;SDS011;20500;49.856;20.290;2023-03-23T12:33:20;7.30;;;2.40;;
34234;SDS011;20500;49.856;20.290;2023-03-23T12:36:34;9.70;;;3.00;;
34234;SDS011;20500;49.856;20.290;2023-03-23T12:40:03;7.40;;;2.70;;
34234;SDS011;20500;49.856;20.290;2023-03-23T12:43:25;9.50;;;3.00;;
34234;SDS011;20500;49.856;20.290;2023-03-23T12:46:43;9.70;;;3.30;;
34234;SDS011;20500;49.856;20.290;2023-03-23T12:49:56;7.30;;;2.60;;
34234;SDS011;20500;49.856;20.290;2023-03-23T12:53:06;8.10;;;2.70;;
34234;SDS011;20500;49.856;20.290;2023-03-23T12:56:23;8.90;;;3.60;;
34234;SDS011;20500;49.856;20.290;2023-03-23T12:59:35;9.00;;;3.40;;
34234;SDS011;20500;49.856;20.290;2023-03-23T13:02:44;6.80;;;2.80;;
34234;SDS011;20500;49.856;20.290;2023-03-23T13:05:57;7.60;;;2.70;;
34234;SDS011;20500;49.856;20.290;2023-03-23T13:09:09;8.20;;;3.10;;
34234;SDS011;20500;49.856;20.290;2023-03-23T13:12:19;9.00;;;3.00;;
34234;SDS011;20500;49.856;20.290;2023-03-23T13:15:31;8.60;;;3.20;;
34234;SDS011;20500;49.856;20.290;2023-03-23T13:18:42;7.60;;;2.70;;
34234;SDS011;20500;49.856;20.290;2023-03-23T13:21:55;7.80;;;2.60;;
34234;SDS011;20500;49.856;20.290;2023-03-23T13:25:06;6.70;;;1.90;;
34234;SDS011;20500;49.856;20.290;2023-03-23T13:28:17;4.30;;;1.50;;
34234;SDS011;20500;49.856;20.290;2023-03-23T13:31:25;5.20;;;2.00;;
34234;SDS011;20500;49.856;20.290;2023-03-23T13:34:35;6.30;;;1.90;;
34234;SDS011;20500;49.856;20.290;2023-03-23T13:37:44;6.30;;;1.80;;
34234;SDS011;20500;49.856;20.290;2023-03-23T13:40:50;4.80;;;1.80;;
34234;SDS011;20500;49.856;20.290;2023-03-23T13:47:25;5.50;;;2.10;;
34234;SDS011;20500;49.856;20.290;2023-03-23T13:50:43;5.00;;;2.00;;
34234;SDS011;20500;49.856;20.290;2023-03-23T13:53:52;6.70;;;2.40;;
34234;SDS011;20500;49.856;20.290;2023-03-23T13:57:20;6.40;;;2.10;;
34234;SDS011;20500;49.856;20.290;2023-03-23T14:00:35;6.80;;;2.10;;
34234;SDS011;20500;49.856;20.290;2023-03-23T14:03:49;4.70;;;1.80;;
34234;SDS011;20500;49.856;20.290;2023-03-23T14:07:07;5.10;;;1.90;;
34234;SDS011;20500;49.856;20.290;2023-03-23T14:10:16;7.00;;;2.50;;
34234;SDS011;20500;49.856;20.290;2023-03-23T14:13:23;5.40;;;2.00;;
34234;SDS011;20500;49.856;20.290;2023-03-23T14:16:35;7.20;;;2.50;;
34234;SDS011;20500;49.856;20.290;2023-03-23T14:19:42;6.60;;;2.30;;
34234;SDS011;20500;49.856;20.290;2023-03-23T14:22:52;6.50;;;2.10;;
34234;SDS011;20500;49.856;20.290;2023-03-23T14:26:00;7.50;;;2.60;;
34234;SDS011;20500;49.856;20.290;2023-03-23T14:29:10;6.80;;;2.20;;
34234;SDS011;20500;49.856;20.290;2023-03-23T14:32:16;7.20;;;2.30;;
34234;SDS011;20500;49.856;20.290;2023-03-23T14:35:30;7.30;;;2.70;;
34234;SDS011;20500;49.856;20.290;2023-03-23T14:38:37;8.10;;;2.20;;
34234;SDS011;20500;49.856;20.290;2023-03-23T14:41:42;7.50;;;2.30;;
34234;SDS011;20500;49.856;20.290;2023-03-23T14:44:48;5.60;;;2.10;;
34234;SDS011;20500;49.856;20.290;2023-03-23T14:47:53;6.90;;;2.60;;
34234;SDS011;20500;49.856;20.290;2023-03-23T14:51:00;7.30;;;2.70;;
34234;SDS011;20500;49.856;20.290;2023-03-23T14:54:08;7.20;;;2.40;;
34234;SDS011;20500;49.856;20.290;2023-03-23T14:57:14;6.60;;;2.40;;
34234;SDS011;20500;49.856;20.290;2023-03-23T15:00:21;7.30;;;2.20;;
34234;SDS011;20500;49.856;20.290;2023-03-23T15:03:32;9.60;;;3.30;;
34234;SDS011;20500;49.856;20.290;2023-03-23T15:06:39;8.80;;;2.60;;
34234;SDS011;20500;49.856;20.290;2023-03-23T15:09:45;7.50;;;2.50;;
34234;SDS011;20500;49.856;20.290;2023-03-23T15:12:51;6.90;;;2.60;;
34234;SDS011;20500;49.856;20.290;2023-03-23T15:16:03;7.90;;;2.40;;
34234;SDS011;20500;49.856;20.290;2023-03-23T15:19:15;7.40;;;2.30;;
34234;SDS011;20500;49.856;20.290;2023-03-23T15:22:23;8.70;;;3.50;;
34234;SDS011;20500;49.856;20.290;2023-03-23T15:25:31;7.30;;;2.70;;
34234;SDS011;20500;49.856;20.290;2023-03-23T15:28:41;8.70;;;3.20;;
34234;SDS011;20500;49.856;20.290;2023-03-23T15:31:46;7.60;;;2.70;;
34234;SDS011;20500;49.856;20.290;2023-03-23T15:34:53;9.70;;;3.70;;
34234;SDS011;20500;49.856;20.290;2023-03-23T15:38:00;7.60;;;2.80;;
34234;SDS011;20500;49.856;20.290;2023-03-23T15:44:29;8.20;;;2.70;;
34234;SDS011;20500;49.856;20.290;2023-03-23T15:47:44;8.30;;;2.70;;
34234;SDS011;20500;49.856;20.290;2023-03-23T15:50:51;12.30;;;5.10;;
34234;SDS011;20500;49.856;20.290;2023-03-23T15:53:56;13.40;;;6.30;;
34234;SDS011;20500;49.856;20.290;2023-03-23T15:57:02;12.50;;;6.70;;
34234;SDS011;20500;49.856;20.290;2023-03-23T16:00:08;13.40;;;7.20;;
34234;SDS011;20500;49.856;20.290;2023-03-23T16:03:17;15.30;;;6.70;;
34234;SDS011;20500;49.856;20.290;2023-03-23T16:06:30;12.80;;;5.50;;
34234;SDS011;20500;49.856;20.290;2023-03-23T16:09:37;14.20;;;5.20;;
34234;SDS011;20500;49.856;20.290;2023-03-23T16:12:44;12.80;;;6.40;;
34234;SDS011;20500;49.856;20.290;2023-03-23T16:15:50;13.50;;;6.80;;
34234;SDS011;20500;49.856;20.290;2023-03-23T16:18:56;14.90;;;7.20;;
34234;SDS011;20500;49.856;20.290;2023-03-23T16:22:02;11.30;;;4.90;;
34234;SDS011;20500;49.856;20.290;2023-03-23T16:25:09;12.50;;;5.70;;
34234;SDS011;20500;49.856;20.290;2023-03-23T16:28:15;12.70;;;5.70;;
34234;SDS011;20500;49.856;20.290;2023-03-23T16:31:22;11.70;;;5.50;;
34234;SDS011;20500;49.856;20.290;2023-03-23T16:34:28;13.50;;;5.10;;
34234;SDS011;20500;49.856;20.290;2023-03-23T16:37:35;13.50;;;6.40;;
34234;SDS011;20500;49.856;20.290;2023-03-23T16:40:42;14.70;;;6.30;;
34234;SDS011;20500;49.856;20.290;2023-03-23T16:43:49;14.60;;;7.60;;
34234;SDS011;20500;49.856;20.290;2023-03-23T16:50:00;14.50;;;7.90;;
34234;SDS011;20500;49.856;20.290;2023-03-23T16:53:08;14.00;;;7.60;;
34234;SDS011;20500;49.856;20.290;2023-03-23T16:56:15;14.80;;;7.00;;
34234;SDS011;20500;49.856;20.290;2023-03-23T16:59:21;17.40;;;8.90;;
34234;SDS011;20500;49.856;20.290;2023-03-23T17:05:32;15.50;;;8.50;;
34234;SDS011;20500;49.856;20.290;2023-03-23T17:08:40;16.80;;;7.80;;
34234;SDS011;20500;49.856;20.290;2023-03-23T17:11:46;15.00;;;7.30;;
34234;SDS011;20500;49.856;20.290;2023-03-23T17:14:52;14.60;;;7.70;;
34234;SDS011;20500;49.856;20.290;2023-03-23T17:21:04;14.90;;;9.50;;
34234;SDS011;20500;49.856;20.290;2023-03-23T17:24:11;14.60;;;7.50;;
34234;SDS011;20500;49.856;20.290;2023-03-23T17:27:18;14.70;;;7.20;;
34234;SDS011;20500;49.856;20.290;2023-03-23T17:30:24;15.10;;;7.60;;
